sensor_id;sensor_type;location;lat;lon;timestamp;temperature;humidity
41904;DHT22;27586;51.124;4.182;2023-12-28T00:00:17;10.60;99.90
41904;DHT22;27586;51.124;4.182;2023-12-28T00:02:43;10.50;99.90
41904;DHT22;27586;51.124;4.182;2023-12-28T00:05:08;10.50;99.90
41904;DHT22;27586;51.124;4.182;2023-12-28T00:07:34;10.50;99.90
41904;DHT22;27586;51.124;4.182;2023-12-28T00:10:01;10.50;99.90
41904;DHT22;27586;51.124;4.182;2023-12-28T00:12:28;10.50;99.90
41904;DHT22;27586;51.124;4.182;2023-12-28T00:14:53;10.50;99.90
41904;DHT22;27586;51.124;4.182;2023-12-28T00:17:19;10.50;99.90
41904;DHT22;27586;51.124;4.182;2023-12-28T00:19:45;10.50;99.90
41904;DHT22;27586;51.124;4.182;2023-12-28T00:22:11;10.50;99.90
41904;DHT22;27586;51.124;4.182;2023-12-28T00:24:36;10.50;99.90
41904;DHT22;27586;51.124;4.182;2023-12-28T00:27:02;10.50;99.90
41904;DHT22;27586;51.124;4.182;2023-12-28T00:29:28;10.50;99.90
41904;DHT22;27586;51.124;4.182;2023-12-28T00:31:54;10.50;99.90
41904;DHT22;27586;51.124;4.182;2023-12-28T00:34:20;10.40;99.90
41904;DHT22;27586;51.124;4.182;2023-12-28T00:36:46;10.40;99.90
41904;DHT22;27586;51.124;4.182;2023-12-28T00:39:12;10.50;99.90
41904;DHT22;27586;51.124;4.182;2023-12-28T00:41:37;10.50;99.90
41904;DHT22;27586;51.124;4.182;2023-12-28T00:44:03;10.50;99.90
41904;DHT22;27586;51.124;4.182;2023-12-28T00:46:30;10.50;99.90
41904;DHT22;27586;51.124;4.182;2023-12-28T00:48:56;10.60;99.90
41904;DHT22;27586;51.124;4.182;2023-12-28T00:51:21;10.70;99.90
41904;DHT22;27586;51.124;4.182;2023-12-28T00:53:47;10.70;99.90
41904;DHT22;27586;51.124;4.182;2023-12-28T00:56:13;10.70;99.90
41904;DHT22;27586;51.124;4.182;2023-12-28T00:58:39;10.60;99.90
41904;DHT22;27586;51.124;4.182;2023-12-28T01:01:05;10.80;99.90
41904;DHT22;27586;51.124;4.182;2023-12-28T01:03:31;10.80;99.90
41904;DHT22;27586;51.124;4.182;2023-12-28T01:05:57;10.70;99.90
41904;DHT22;27586;51.124;4.182;2023-12-28T01:08:22;10.60;99.90
41904;DHT22;27586;51.124;4.182;2023-12-28T01:10:48;10.80;99.90
41904;DHT22;27586;51.124;4.182;2023-12-28T01:13:14;10.70;99.90
41904;DHT22;27586;51.124;4.182;2023-12-28T01:15:39;10.70;99.90
41904;DHT22;27586;51.124;4.182;2023-12-28T01:18:05;10.60;99.90
41904;DHT22;27586;51.124;4.182;2023-12-28T01:20:31;10.50;99.90
41904;DHT22;27586;51.124;4.182;2023-12-28T01:22:57;10.60;99.90
41904;DHT22;27586;51.124;4.182;2023-12-28T01:25:23;10.60;99.90
41904;DHT22;27586;51.124;4.182;2023-12-28T01:27:48;10.60;99.90
41904;DHT22;27586;51.124;4.182;2023-12-28T01:30:14;10.50;99.90
41904;DHT22;27586;51.124;4.182;2023-12-28T01:32:40;10.50;99.90
41904;DHT22;27586;51.124;4.182;2023-12-28T01:35:06;10.60;99.90
41904;DHT22;27586;51.124;4.182;2023-12-28T01:37:32;10.50;99.90
41904;DHT22;27586;51.124;4.182;2023-12-28T01:39:59;10.60;99.90
41904;DHT22;27586;51.124;4.182;2023-12-28T01:42:26;10.60;99.90
41904;DHT22;27586;51.124;4.182;2023-12-28T01:44:51;10.50;99.90
41904;DHT22;27586;51.124;4.182;2023-12-28T01:47:17;10.50;99.90
41904;DHT22;27586;51.124;4.182;2023-12-28T01:49:43;10.60;99.90
41904;DHT22;27586;51.124;4.182;2023-12-28T01:52:10;10.70;99.90
41904;DHT22;27586;51.124;4.182;2023-12-28T01:54:36;10.60;99.90
41904;DHT22;27586;51.124;4.182;2023-12-28T01:57:03;10.50;99.90
41904;DHT22;27586;51.124;4.182;2023-12-28T01:59:30;10.50;99.90
41904;DHT22;27586;51.124;4.182;2023-12-28T02:01:57;10.50;99.90
41904;DHT22;27586;51.124;4.182;2023-12-28T02:04:23;10.50;99.90
41904;DHT22;27586;51.124;4.182;2023-12-28T02:06:57;10.50;99.90
41904;DHT22;27586;51.124;4.182;2023-12-28T02:09:23;10.50;99.90
41904;DHT22;27586;51.124;4.182;2023-12-28T02:11:49;10.40;99.90
41904;DHT22;27586;51.124;4.182;2023-12-28T02:14:15;10.40;99.90
41904;DHT22;27586;51.124;4.182;2023-12-28T02:22:02;10.50;99.90
41904;DHT22;27586;51.124;4.182;2023-12-28T02:24:28;10.70;99.90
41904;DHT22;27586;51.124;4.182;2023-12-28T02:26:53;10.60;99.90
41904;DHT22;27586;51.124;4.182;2023-12-28T02:29:19;10.50;99.90
41904;DHT22;27586;51.124;4.182;2023-12-28T02:31:53;10.50;99.90
41904;DHT22;27586;51.124;4.182;2023-12-28T02:34:29;10.50;99.90
41904;DHT22;27586;51.124;4.182;2023-12-28T02:36:59;10.40;99.90
41904;DHT22;27586;51.124;4.182;2023-12-28T02:39:27;10.30;99.90
41904;DHT22;27586;51.124;4.182;2023-12-28T02:41:54;10.30;99.90
41904;DHT22;27586;51.124;4.182;2023-12-28T02:44:21;10.40;99.90
41904;DHT22;27586;51.124;4.182;2023-12-28T02:46:46;10.50;99.90
41904;DHT22;27586;51.124;4.182;2023-12-28T02:49:12;10.50;99.90
41904;DHT22;27586;51.124;4.182;2023-12-28T02:51:38;10.60;99.90
41904;DHT22;27586;51.124;4.182;2023-12-28T02:54:04;10.50;99.90
41904;DHT22;27586;51.124;4.182;2023-12-28T02:56:30;10.50;99.90
41904;DHT22;27586;51.124;4.182;2023-12-28T02:58:57;10.50;99.90
41904;DHT22;27586;51.124;4.182;2023-12-28T03:01:23;10.60;99.90
41904;DHT22;27586;51.124;4.182;2023-12-28T03:03:48;10.60;99.90
41904;DHT22;27586;51.124;4.182;2023-12-28T03:06:14;10.50;99.90
41904;DHT22;27586;51.124;4.182;2023-12-28T03:08:40;10.50;99.90
41904;DHT22;27586;51.124;4.182;2023-12-28T03:11:05;10.40;99.90
41904;DHT22;27586;51.124;4.182;2023-12-28T03:13:31;10.40;99.90
41904;DHT22;27586;51.124;4.182;2023-12-28T03:15:57;10.40;99.90
41904;DHT22;27586;51.124;4.182;2023-12-28T03:18:23;10.40;99.90
41904;DHT22;27586;51.124;4.182;2023-12-28T03:20:49;10.40;99.90
41904;DHT22;27586;51.124;4.182;2023-12-28T03:23:14;10.40;99.90
41904;DHT22;27586;51.124;4.182;2023-12-28T03:25:40;10.40;99.90
41904;DHT22;27586;51.124;4.182;2023-12-28T03:28:06;10.50;99.90
41904;DHT22;27586;51.124;4.182;2023-12-28T03:30:31;10.50;99.90
41904;DHT22;27586;51.124;4.182;2023-12-28T03:32:57;10.50;99.90
41904;DHT22;27586;51.124;4.182;2023-12-28T03:35:23;10.50;99.90
41904;DHT22;27586;51.124;4.182;2023-12-28T03:37:48;10.50;99.90
41904;DHT22;27586;51.124;4.182;2023-12-28T03:40:14;10.50;99.90
41904;DHT22;27586;51.124;4.182;2023-12-28T03:42:40;10.60;99.90
41904;DHT22;27586;51.124;4.182;2023-12-28T03:45:07;10.60;99.90
41904;DHT22;27586;51.124;4.182;2023-12-28T03:47:33;10.60;99.90
41904;DHT22;27586;51.124;4.182;2023-12-28T03:49:58;10.70;99.90
41904;DHT22;27586;51.124;4.182;2023-12-28T03:52:27;10.70;99.90
41904;DHT22;27586;51.124;4.182;2023-12-28T03:54:55;10.60;99.90
41904;DHT22;27586;51.124;4.182;2023-12-28T03:57:21;10.60;99.90
41904;DHT22;27586;51.124;4.182;2023-12-28T03:59:46;10.50;99.90
41904;DHT22;27586;51.124;4.182;2023-12-28T04:02:13;10.40;99.90
41904;DHT22;27586;51.124;4.182;2023-12-28T04:04:39;10.30;99.90
41904;DHT22;27586;51.124;4.182;2023-12-28T04:07:05;10.30;99.90
41904;DHT22;27586;51.124;4.182;2023-12-28T04:09:33;10.40;99.90
41904;DHT22;27586;51.124;4.182;2023-12-28T04:11:58;10.40;99.90
41904;DHT22;27586;51.124;4.182;2023-12-28T04:14:24;10.40;99.90
41904;DHT22;27586;51.124;4.182;2023-12-28T04:16:50;10.50;99.90
41904;DHT22;27586;51.124;4.182;2023-12-28T04:19:15;10.50;99.90
41904;DHT22;27586;51.124;4.182;2023-12-28T04:21:44;10.60;99.90
41904;DHT22;27586;51.124;4.182;2023-12-28T04:24:10;10.70;99.90
41904;DHT22;27586;51.124;4.182;2023-12-28T04:26:35;10.80;99.90
41904;DHT22;27586;51.124;4.182;2023-12-28T04:29:02;10.70;99.90
41904;DHT22;27586;51.124;4.182;2023-12-28T04:31:27;10.70;99.90
41904;DHT22;27586;51.124;4.182;2023-12-28T04:33:53;10.80;99.90
41904;DHT22;27586;51.124;4.182;2023-12-28T04:36:19;10.70;99.90
41904;DHT22;27586;51.124;4.182;2023-12-28T04:38:44;10.70;99.90
41904;DHT22;27586;51.124;4.182;2023-12-28T04:41:10;10.70;99.90
41904;DHT22;27586;51.124;4.182;2023-12-28T04:43:37;10.70;99.90
41904;DHT22;27586;51.124;4.182;2023-12-28T04:46:06;10.70;99.90
41904;DHT22;27586;51.124;4.182;2023-12-28T04:48:32;10.60;99.90
41904;DHT22;27586;51.124;4.182;2023-12-28T04:50:57;10.50;99.90
41904;DHT22;27586;51.124;4.182;2023-12-28T04:53:23;10.40;99.90
41904;DHT22;27586;51.124;4.182;2023-12-28T04:55:49;10.30;99.90
41904;DHT22;27586;51.124;4.182;2023-12-28T04:58:15;10.30;99.90
41904;DHT22;27586;51.124;4.182;2023-12-28T05:00:41;10.30;99.90
41904;DHT22;27586;51.124;4.182;2023-12-28T05:03:06;10.40;99.90
41904;DHT22;27586;51.124;4.182;2023-12-28T05:05:32;10.50;99.90
41904;DHT22;27586;51.124;4.182;2023-12-28T05:07:58;10.50;99.90
41904;DHT22;27586;51.124;4.182;2023-12-28T05:10:24;10.50;99.90
41904;DHT22;27586;51.124;4.182;2023-12-28T05:12:49;10.50;99.90
41904;DHT22;27586;51.124;4.182;2023-12-28T05:15:15;10.50;99.90
41904;DHT22;27586;51.124;4.182;2023-12-28T05:17:42;10.60;99.90
41904;DHT22;27586;51.124;4.182;2023-12-28T05:20:09;10.50;99.90
41904;DHT22;27586;51.124;4.182;2023-12-28T05:22:34;10.50;99.90
41904;DHT22;27586;51.124;4.182;2023-12-28T05:25:00;10.40;99.90
41904;DHT22;27586;51.124;4.182;2023-12-28T05:27:26;10.30;99.90
41904;DHT22;27586;51.124;4.182;2023-12-28T05:29:51;10.40;99.90
41904;DHT22;27586;51.124;4.182;2023-12-28T05:32:17;10.50;99.90
41904;DHT22;27586;51.124;4.182;2023-12-28T05:34:43;10.30;99.90
41904;DHT22;27586;51.124;4.182;2023-12-28T05:37:09;10.30;99.90
41904;DHT22;27586;51.124;4.182;2023-12-28T05:39:34;10.30;99.90
41904;DHT22;27586;51.124;4.182;2023-12-28T05:42:00;10.30;99.90
41904;DHT22;27586;51.124;4.182;2023-12-28T05:44:25;10.20;99.90
41904;DHT22;27586;51.124;4.182;2023-12-28T05:46:51;10.20;99.90
41904;DHT22;27586;51.124;4.182;2023-12-28T05:49:17;10.20;99.90
41904;DHT22;27586;51.124;4.182;2023-12-28T05:51:43;10.30;99.90
41904;DHT22;27586;51.124;4.182;2023-12-28T05:54:09;10.30;99.90
41904;DHT22;27586;51.124;4.182;2023-12-28T05:56:35;10.30;99.90
41904;DHT22;27586;51.124;4.182;2023-12-28T05:59:01;10.30;99.90
41904;DHT22;27586;51.124;4.182;2023-12-28T06:01:27;10.50;99.90
41904;DHT22;27586;51.124;4.182;2023-12-28T06:03:53;10.40;99.90
41904;DHT22;27586;51.124;4.182;2023-12-28T06:06:19;10.40;99.90
41904;DHT22;27586;51.124;4.182;2023-12-28T06:08:45;10.30;99.90
41904;DHT22;27586;51.124;4.182;2023-12-28T06:11:10;10.30;99.90
41904;DHT22;27586;51.124;4.182;2023-12-28T06:13:36;10.50;99.90
41904;DHT22;27586;51.124;4.182;2023-12-28T06:16:02;10.50;99.90
41904;DHT22;27586;51.124;4.182;2023-12-28T06:18:27;10.40;99.90
41904;DHT22;27586;51.124;4.182;2023-12-28T06:20:53;10.30;99.90
41904;DHT22;27586;51.124;4.182;2023-12-28T06:23:19;10.30;99.90
41904;DHT22;27586;51.124;4.182;2023-12-28T06:25:46;10.30;99.90
41904;DHT22;27586;51.124;4.182;2023-12-28T06:28:11;10.20;99.90
41904;DHT22;27586;51.124;4.182;2023-12-28T06:30:37;10.10;99.90
41904;DHT22;27586;51.124;4.182;2023-12-28T06:33:03;10.10;99.90
41904;DHT22;27586;51.124;4.182;2023-12-28T06:35:28;10.10;99.90
41904;DHT22;27586;51.124;4.182;2023-12-28T06:37:54;10.10;99.90
41904;DHT22;27586;51.124;4.182;2023-12-28T06:40:20;10.00;99.90
41904;DHT22;27586;51.124;4.182;2023-12-28T06:42:45;10.10;99.90
41904;DHT22;27586;51.124;4.182;2023-12-28T06:45:11;10.00;99.90
41904;DHT22;27586;51.124;4.182;2023-12-28T06:47:37;10.00;99.90
41904;DHT22;27586;51.124;4.182;2023-12-28T06:50:02;9.90;99.90
41904;DHT22;27586;51.124;4.182;2023-12-28T06:52:28;10.00;99.90
41904;DHT22;27586;51.124;4.182;2023-12-28T06:54:57;10.00;99.90
41904;DHT22;27586;51.124;4.182;2023-12-28T06:57:22;10.00;99.90
41904;DHT22;27586;51.124;4.182;2023-12-28T06:59:48;10.00;99.90
41904;DHT22;27586;51.124;4.182;2023-12-28T07:02:13;10.00;99.90
41904;DHT22;27586;51.124;4.182;2023-12-28T07:04:39;9.90;99.90
41904;DHT22;27586;51.124;4.182;2023-12-28T07:07:05;10.00;99.90
41904;DHT22;27586;51.124;4.182;2023-12-28T07:09:30;10.00;99.90
41904;DHT22;27586;51.124;4.182;2023-12-28T07:11:56;10.00;99.90
41904;DHT22;27586;51.124;4.182;2023-12-28T07:14:22;9.90;99.90
41904;DHT22;27586;51.124;4.182;2023-12-28T07:16:48;9.90;99.90
41904;DHT22;27586;51.124;4.182;2023-12-28T07:19:13;9.90;99.90
41904;DHT22;27586;51.124;4.182;2023-12-28T07:21:39;10.00;99.90
41904;DHT22;27586;51.124;4.182;2023-12-28T07:24:05;9.90;99.90
41904;DHT22;27586;51.124;4.182;2023-12-28T07:26:30;10.00;99.90
41904;DHT22;27586;51.124;4.182;2023-12-28T07:28:56;10.00;99.90
41904;DHT22;27586;51.124;4.182;2023-12-28T07:31:26;9.90;99.90
41904;DHT22;27586;51.124;4.182;2023-12-28T07:33:52;10.00;99.90
41904;DHT22;27586;51.124;4.182;2023-12-28T07:36:19;10.00;99.90
41904;DHT22;27586;51.124;4.182;2023-12-28T07:38:44;10.30;99.90
41904;DHT22;27586;51.124;4.182;2023-12-28T07:41:10;10.30;99.90
41904;DHT22;27586;51.124;4.182;2023-12-28T07:43:36;10.20;99.90
41904;DHT22;27586;51.124;4.182;2023-12-28T07:46:02;10.30;99.90
41904;DHT22;27586;51.124;4.182;2023-12-28T07:48:28;10.30;99.90
41904;DHT22;27586;51.124;4.182;2023-12-28T07:50:56;10.40;99.90
41904;DHT22;27586;51.124;4.182;2023-12-28T07:53:22;10.40;99.90
41904;DHT22;27586;51.124;4.182;2023-12-28T07:55:48;10.40;99.90
41904;DHT22;27586;51.124;4.182;2023-12-28T07:58:14;10.40;99.90
41904;DHT22;27586;51.124;4.182;2023-12-28T08:00:40;10.40;99.90
41904;DHT22;27586;51.124;4.182;2023-12-28T08:03:05;10.40;99.90
41904;DHT22;27586;51.124;4.182;2023-12-28T08:05:31;10.30;99.90
41904;DHT22;27586;51.124;4.182;2023-12-28T08:07:57;10.20;99.90
41904;DHT22;27586;51.124;4.182;2023-12-28T08:10:22;10.20;99.90
41904;DHT22;27586;51.124;4.182;2023-12-28T08:12:48;10.20;99.90
41904;DHT22;27586;51.124;4.182;2023-12-28T08:15:14;10.20;99.90
41904;DHT22;27586;51.124;4.182;2023-12-28T08:17:39;10.30;99.90
41904;DHT22;27586;51.124;4.182;2023-12-28T08:20:06;10.30;99.90
41904;DHT22;27586;51.124;4.182;2023-12-28T08:22:32;10.30;99.90
41904;DHT22;27586;51.124;4.182;2023-12-28T08:24:57;10.40;99.90
41904;DHT22;27586;51.124;4.182;2023-12-28T08:27:23;10.30;99.90
41904;DHT22;27586;51.124;4.182;2023-12-28T08:29:49;10.20;99.90
41904;DHT22;27586;51.124;4.182;2023-12-28T08:32:15;10.30;99.90
41904;DHT22;27586;51.124;4.182;2023-12-28T08:34:40;10.40;99.90
41904;DHT22;27586;51.124;4.182;2023-12-28T08:37:06;10.50;99.90
41904;DHT22;27586;51.124;4.182;2023-12-28T08:39:32;10.50;99.90
41904;DHT22;27586;51.124;4.182;2023-12-28T08:41:58;10.50;99.90
41904;DHT22;27586;51.124;4.182;2023-12-28T08:44:23;10.60;99.90
41904;DHT22;27586;51.124;4.182;2023-12-28T08:46:49;10.60;99.90
41904;DHT22;27586;51.124;4.182;2023-12-28T08:49:15;10.50;99.90
41904;DHT22;27586;51.124;4.182;2023-12-28T08:51:41;10.50;99.90
41904;DHT22;27586;51.124;4.182;2023-12-28T08:54:07;10.50;99.90
41904;DHT22;27586;51.124;4.182;2023-12-28T08:56:34;10.60;99.90
41904;DHT22;27586;51.124;4.182;2023-12-28T08:59:00;10.70;99.90
41904;DHT22;27586;51.124;4.182;2023-12-28T09:01:26;10.70;99.90
41904;DHT22;27586;51.124;4.182;2023-12-28T09:03:53;10.80;99.90
41904;DHT22;27586;51.124;4.182;2023-12-28T09:06:22;10.90;99.90
41904;DHT22;27586;51.124;4.182;2023-12-28T09:08:49;10.90;99.90
41904;DHT22;27586;51.124;4.182;2023-12-28T09:11:16;11.00;99.90
41904;DHT22;27586;51.124;4.182;2023-12-28T09:13:42;10.90;99.90
41904;DHT22;27586;51.124;4.182;2023-12-28T09:16:10;10.90;99.90
41904;DHT22;27586;51.124;4.182;2023-12-28T09:18:37;10.90;99.90
41904;DHT22;27586;51.124;4.182;2023-12-28T09:21:03;10.90;99.90
41904;DHT22;27586;51.124;4.182;2023-12-28T09:23:31;10.90;99.90
41904;DHT22;27586;51.124;4.182;2023-12-28T09:25:57;10.80;99.90
41904;DHT22;27586;51.124;4.182;2023-12-28T09:28:23;10.80;99.90
41904;DHT22;27586;51.124;4.182;2023-12-28T09:30:49;11.10;99.90
41904;DHT22;27586;51.124;4.182;2023-12-28T09:33:15;11.20;99.90
41904;DHT22;27586;51.124;4.182;2023-12-28T09:35:41;11.20;99.90
41904;DHT22;27586;51.124;4.182;2023-12-28T09:38:07;11.30;99.90
41904;DHT22;27586;51.124;4.182;2023-12-28T09:40:37;11.30;99.90
41904;DHT22;27586;51.124;4.182;2023-12-28T09:45:40;11.30;99.90
41904;DHT22;27586;51.124;4.182;2023-12-28T09:48:06;11.30;99.90
41904;DHT22;27586;51.124;4.182;2023-12-28T09:50:32;11.40;99.90
41904;DHT22;27586;51.124;4.182;2023-12-28T09:52:58;11.30;99.90
41904;DHT22;27586;51.124;4.182;2023-12-28T09:55:24;11.30;99.90
41904;DHT22;27586;51.124;4.182;2023-12-28T09:57:52;11.30;99.90
41904;DHT22;27586;51.124;4.182;2023-12-28T10:00:19;11.30;99.90
41904;DHT22;27586;51.124;4.182;2023-12-28T10:02:45;11.10;99.90
41904;DHT22;27586;51.124;4.182;2023-12-28T10:05:16;11.20;99.90
41904;DHT22;27586;51.124;4.182;2023-12-28T10:07:43;11.30;99.90
41904;DHT22;27586;51.124;4.182;2023-12-28T10:10:09;11.20;99.90
41904;DHT22;27586;51.124;4.182;2023-12-28T10:12:36;11.20;99.90
41904;DHT22;27586;51.124;4.182;2023-12-28T10:15:02;11.30;99.90
41904;DHT22;27586;51.124;4.182;2023-12-28T10:17:28;11.30;99.90
41904;DHT22;27586;51.124;4.182;2023-12-28T10:19:53;11.40;99.90
41904;DHT22;27586;51.124;4.182;2023-12-28T10:22:21;11.40;99.90
41904;DHT22;27586;51.124;4.182;2023-12-28T10:24:47;11.50;99.90
41904;DHT22;27586;51.124;4.182;2023-12-28T10:27:15;11.50;99.90
41904;DHT22;27586;51.124;4.182;2023-12-28T10:29:42;11.40;99.90
41904;DHT22;27586;51.124;4.182;2023-12-28T10:32:08;11.40;99.90
41904;DHT22;27586;51.124;4.182;2023-12-28T10:34:33;11.50;99.90
41904;DHT22;27586;51.124;4.182;2023-12-28T10:37:00;11.40;99.90
41904;DHT22;27586;51.124;4.182;2023-12-28T10:39:31;11.40;99.90
41904;DHT22;27586;51.124;4.182;2023-12-28T10:42:00;11.40;99.90
41904;DHT22;27586;51.124;4.182;2023-12-28T10:44:31;11.50;99.90
41904;DHT22;27586;51.124;4.182;2023-12-28T10:47:02;11.50;99.90
41904;DHT22;27586;51.124;4.182;2023-12-28T10:49:30;11.60;99.90
41904;DHT22;27586;51.124;4.182;2023-12-28T10:51:59;11.60;99.90
41904;DHT22;27586;51.124;4.182;2023-12-28T10:54:43;11.60;99.90
41904;DHT22;27586;51.124;4.182;2023-12-28T10:57:16;11.60;99.90
41904;DHT22;27586;51.124;4.182;2023-12-28T11:00:07;11.60;99.90
41904;DHT22;27586;51.124;4.182;2023-12-28T11:02:42;11.70;99.90
41904;DHT22;27586;51.124;4.182;2023-12-28T11:05:11;11.60;99.90
41904;DHT22;27586;51.124;4.182;2023-12-28T11:07:38;11.60;99.90
41904;DHT22;27586;51.124;4.182;2023-12-28T11:10:06;11.50;99.90
41904;DHT22;27586;51.124;4.182;2023-12-28T11:12:33;11.60;99.90
41904;DHT22;27586;51.124;4.182;2023-12-28T11:14:59;11.70;99.90
41904;DHT22;27586;51.124;4.182;2023-12-28T11:17:25;11.60;99.90
41904;DHT22;27586;51.124;4.182;2023-12-28T11:19:53;11.70;99.90
41904;DHT22;27586;51.124;4.182;2023-12-28T11:22:21;11.70;99.90
41904;DHT22;27586;51.124;4.182;2023-12-28T11:24:47;11.70;99.90
41904;DHT22;27586;51.124;4.182;2023-12-28T11:27:13;11.80;99.90
41904;DHT22;27586;51.124;4.182;2023-12-28T11:29:41;11.80;99.90
41904;DHT22;27586;51.124;4.182;2023-12-28T11:32:08;11.90;99.90
41904;DHT22;27586;51.124;4.182;2023-12-28T11:34:34;11.90;99.90
41904;DHT22;27586;51.124;4.182;2023-12-28T11:37:17;11.90;99.90
41904;DHT22;27586;51.124;4.182;2023-12-28T11:39:49;11.90;99.90
41904;DHT22;27586;51.124;4.182;2023-12-28T11:42:19;11.90;99.90
41904;DHT22;27586;51.124;4.182;2023-12-28T11:44:45;11.80;99.90
41904;DHT22;27586;51.124;4.182;2023-12-28T11:47:16;12.00;99.90
41904;DHT22;27586;51.124;4.182;2023-12-28T11:49:43;11.90;99.90
41904;DHT22;27586;51.124;4.182;2023-12-28T11:52:25;11.90;99.90
41904;DHT22;27586;51.124;4.182;2023-12-28T11:54:51;11.90;99.90
41904;DHT22;27586;51.124;4.182;2023-12-28T11:57:17;11.70;99.90
41904;DHT22;27586;51.124;4.182;2023-12-28T11:59:43;11.80;99.90
41904;DHT22;27586;51.124;4.182;2023-12-28T12:02:09;11.70;99.90
41904;DHT22;27586;51.124;4.182;2023-12-28T12:04:36;11.70;99.90
41904;DHT22;27586;51.124;4.182;2023-12-28T12:07:02;11.80;99.90
41904;DHT22;27586;51.124;4.182;2023-12-28T12:09:29;11.80;99.90
41904;DHT22;27586;51.124;4.182;2023-12-28T12:12:02;11.90;99.90
41904;DHT22;27586;51.124;4.182;2023-12-28T12:14:29;11.80;99.90
41904;DHT22;27586;51.124;4.182;2023-12-28T12:16:59;11.80;99.90
41904;DHT22;27586;51.124;4.182;2023-12-28T12:19:25;11.90;99.90
41904;DHT22;27586;51.124;4.182;2023-12-28T12:21:57;11.90;99.90
41904;DHT22;27586;51.124;4.182;2023-12-28T12:24:24;11.90;99.90
41904;DHT22;27586;51.124;4.182;2023-12-28T12:26:51;11.90;99.90
41904;DHT22;27586;51.124;4.182;2023-12-28T12:29:16;11.90;99.90
41904;DHT22;27586;51.124;4.182;2023-12-28T12:31:44;11.90;99.90
41904;DHT22;27586;51.124;4.182;2023-12-28T12:34:10;11.80;99.90
41904;DHT22;27586;51.124;4.182;2023-12-28T12:36:37;11.80;99.90
41904;DHT22;27586;51.124;4.182;2023-12-28T12:39:03;11.80;99.90
41904;DHT22;27586;51.124;4.182;2023-12-28T12:41:34;11.80;99.90
41904;DHT22;27586;51.124;4.182;2023-12-28T12:44:00;11.80;99.90
41904;DHT22;27586;51.124;4.182;2023-12-28T12:46:26;11.80;99.90
41904;DHT22;27586;51.124;4.182;2023-12-28T12:48:59;11.80;99.90
41904;DHT22;27586;51.124;4.182;2023-12-28T12:51:26;11.70;99.90
41904;DHT22;27586;51.124;4.182;2023-12-28T12:53:58;11.80;99.90
41904;DHT22;27586;51.124;4.182;2023-12-28T12:56:29;11.80;99.90
41904;DHT22;27586;51.124;4.182;2023-12-28T12:58:55;11.80;99.90
41904;DHT22;27586;51.124;4.182;2023-12-28T13:01:22;11.80;99.90
41904;DHT22;27586;51.124;4.182;2023-12-28T13:03:48;12.00;99.90
41904;DHT22;27586;51.124;4.182;2023-12-28T13:06:14;11.90;99.90
41904;DHT22;27586;51.124;4.182;2023-12-28T13:08:39;11.90;99.90
41904;DHT22;27586;51.124;4.182;2023-12-28T13:11:05;11.90;99.90
41904;DHT22;27586;51.124;4.182;2023-12-28T13:13:34;11.90;99.90
41904;DHT22;27586;51.124;4.182;2023-12-28T13:16:01;12.00;99.90
41904;DHT22;27586;51.124;4.182;2023-12-28T13:18:26;11.90;99.90
41904;DHT22;27586;51.124;4.182;2023-12-28T13:20:52;12.00;99.90
41904;DHT22;27586;51.124;4.182;2023-12-28T13:23:18;11.90;99.90
41904;DHT22;27586;51.124;4.182;2023-12-28T13:25:43;11.90;99.90
41904;DHT22;27586;51.124;4.182;2023-12-28T13:28:10;11.90;99.90
41904;DHT22;27586;51.124;4.182;2023-12-28T13:30:35;11.90;99.90
41904;DHT22;27586;51.124;4.182;2023-12-28T13:33:03;11.80;99.90
41904;DHT22;27586;51.124;4.182;2023-12-28T13:35:29;11.80;99.90
41904;DHT22;27586;51.124;4.182;2023-12-28T13:37:54;11.80;99.90
41904;DHT22;27586;51.124;4.182;2023-12-28T13:40:20;12.00;99.90
41904;DHT22;27586;51.124;4.182;2023-12-28T13:42:46;11.90;99.90
41904;DHT22;27586;51.124;4.182;2023-12-28T13:45:12;11.90;99.90
41904;DHT22;27586;51.124;4.182;2023-12-28T13:47:38;11.80;99.90
41904;DHT22;27586;51.124;4.182;2023-12-28T13:50:04;11.70;99.90
41904;DHT22;27586;51.124;4.182;2023-12-28T13:52:31;11.80;99.90
41904;DHT22;27586;51.124;4.182;2023-12-28T13:54:57;11.80;99.90
41904;DHT22;27586;51.124;4.182;2023-12-28T13:57:23;11.70;99.90
41904;DHT22;27586;51.124;4.182;2023-12-28T13:59:48;11.70;99.90
41904;DHT22;27586;51.124;4.182;2023-12-28T14:02:14;11.80;99.90
41904;DHT22;27586;51.124;4.182;2023-12-28T14:04:39;11.80;99.90
41904;DHT22;27586;51.124;4.182;2023-12-28T14:07:05;11.80;99.90
41904;DHT22;27586;51.124;4.182;2023-12-28T14:09:31;11.90;99.90
41904;DHT22;27586;51.124;4.182;2023-12-28T14:11:58;11.80;99.90
41904;DHT22;27586;51.124;4.182;2023-12-28T14:14:24;11.80;99.90
41904;DHT22;27586;51.124;4.182;2023-12-28T14:16:50;11.80;99.90
41904;DHT22;27586;51.124;4.182;2023-12-28T14:19:15;11.70;99.90
41904;DHT22;27586;51.124;4.182;2023-12-28T14:21:41;11.80;99.90
41904;DHT22;27586;51.124;4.182;2023-12-28T14:24:08;11.70;99.90
41904;DHT22;27586;51.124;4.182;2023-12-28T14:26:34;11.70;99.90
41904;DHT22;27586;51.124;4.182;2023-12-28T14:29:01;11.70;99.90
41904;DHT22;27586;51.124;4.182;2023-12-28T14:31:32;11.60;99.90
41904;DHT22;27586;51.124;4.182;2023-12-28T14:33:58;11.60;99.90
41904;DHT22;27586;51.124;4.182;2023-12-28T14:36:34;11.70;99.90
41904;DHT22;27586;51.124;4.182;2023-12-28T14:39:04;11.80;99.90
41904;DHT22;27586;51.124;4.182;2023-12-28T14:41:31;11.80;99.90
41904;DHT22;27586;51.124;4.182;2023-12-28T14:43:57;11.70;99.90
41904;DHT22;27586;51.124;4.182;2023-12-28T14:46:24;11.60;99.90
41904;DHT22;27586;51.124;4.182;2023-12-28T14:48:50;11.50;99.90
41904;DHT22;27586;51.124;4.182;2023-12-28T14:51:15;11.40;99.90
41904;DHT22;27586;51.124;4.182;2023-12-28T14:53:41;11.40;99.90
41904;DHT22;27586;51.124;4.182;2023-12-28T14:56:06;11.40;99.90
41904;DHT22;27586;51.124;4.182;2023-12-28T14:58:32;11.40;99.90
41904;DHT22;27586;51.124;4.182;2023-12-28T15:00:58;11.30;99.90
41904;DHT22;27586;51.124;4.182;2023-12-28T15:03:23;11.20;99.90
41904;DHT22;27586;51.124;4.182;2023-12-28T15:05:50;11.20;99.90
41904;DHT22;27586;51.124;4.182;2023-12-28T15:08:16;11.30;99.90
41904;DHT22;27586;51.124;4.182;2023-12-28T15:10:42;11.20;99.90
41904;DHT22;27586;51.124;4.182;2023-12-28T15:13:08;11.30;99.90
41904;DHT22;27586;51.124;4.182;2023-12-28T15:15:34;11.20;99.90
41904;DHT22;27586;51.124;4.182;2023-12-28T15:18:00;11.20;99.90
41904;DHT22;27586;51.124;4.182;2023-12-28T15:20:26;11.30;99.90
41904;DHT22;27586;51.124;4.182;2023-12-28T15:22:52;11.20;99.90
41904;DHT22;27586;51.124;4.182;2023-12-28T15:25:18;11.20;99.90
41904;DHT22;27586;51.124;4.182;2023-12-28T15:27:44;11.30;99.90
41904;DHT22;27586;51.124;4.182;2023-12-28T15:30:10;11.20;99.90
41904;DHT22;27586;51.124;4.182;2023-12-28T15:32:38;11.30;99.90